Time;durP1;ratioP1;P1;durP2;ratioP2;P2;SDS_P1;SDS_P2;PMS_P1;PMS_P2;Temp;Humidity;BMP_temperature;BMP_pressure;BME280_temperature;BME280_humidity;BME280_pressure;Samples;Min_cycle;Max_cycle;Signal;HPM_P1;HPM_P2
2021/07/10 00:05:26;;;;;;;;;;;;;;;-148.22;100.00;58358.63;4938426;29;1028;-87
2021/07/10 00:07:53;;;;;;;;;;;;;;;-148.22;100.00;58358.63;4938365;29;1227;-87
2021/07/10 00:10:19;;;;;;;;;;;;;;;-148.22;100.00;58358.63;4937901;29;1373;-88
2021/07/10 00:12:46;;;;;;;;;;;;;;;-148.22;100.00;58358.63;4938132;29;2000;-88
2021/07/10 00:18:30;;;;;;;;;;;;;;;-148.22;100.00;58358.63;4938033;29;1081;-88
2021/07/10 00:24:15;;;;;;;;;;;;;;;-148.22;100.00;58358.63;4938054;29;1063;-88
2021/07/10 00:27:13;;;;;;;;;;;;;;;-148.22;100.00;58358.63;4937864;29;1311;-89
2021/07/10 00:32:41;;;;;;;;;;;;;;;-148.22;100.00;58358.63;4937718;29;1883;-88
2021/07/10 00:35:19;;;;;;;;;;;;;;;-148.22;100.00;58358.63;4937682;29;1348;-89
2021/07/10 00:38:04;;;;;;;;;;;;;;;-148.22;100.00;58358.63;4945731;29;1198;-88
2021/07/10 00:40:41;;;;;;;;;;;;;;;-148.22;100.00;58358.63;4973569;28;1402;-88
2021/07/10 00:43:10;;;;;;;;;;;;;;;-148.22;100.00;58358.63;4957431;29;1215;-89
2021/07/10 00:46:03;;;;;;;;;;;;;;;-148.22;100.00;58358.63;4973487;28;1212;-88
2021/07/10 00:51:40;;;;;;;;;;;;;;;-148.22;100.00;58358.63;4958310;28;1894;-89
2021/07/10 00:54:19;;;;;;;;;;;;;;;-148.22;100.00;58358.63;4957403;29;1176;-88
2021/07/10 01:00:16;;;;;;;;;;;;;;;-148.22;100.00;58358.63;4899529;29;1083;-89
2021/07/10 01:02:51;;;;;;;;;;;;;;;-148.22;100.00;58358.63;4899325;29;1187;-89
2021/07/10 01:05:26;;;;;;;;;;;;;;;-148.22;100.00;58358.63;4899453;29;1286;-88
2021/07/10 01:08:05;;;;;;;;;;;;;;;-148.22;100.00;58358.63;4899446;29;1239;-89
2021/07/10 01:10:31;;;;;;;;;;;;;;;-148.22;100.00;58358.63;4908971;29;1293;-89
2021/07/10 01:19:20;;;;;;;;;;;;;;;-148.22;100.00;58358.63;4917091;29;954;-88
2021/07/10 01:22:01;;;;;;;;;;;;;;;-148.22;100.00;58358.63;4918091;29;1174;-88
2021/07/10 01:24:38;;;;;;;;;;;;;;;-148.22;100.00;58358.63;4917859;29;1406;-88
2021/07/10 01:27:33;;;;;;;;;;;;;;;-148.22;100.00;58358.63;4918000;29;1213;-88
2021/07/10 01:30:09;;;;;;;;;;;;;;;-148.22;100.00;58358.63;4917997;29;1340;-87
2021/07/10 01:33:09;;;;;;;;;;;;;;;-148.22;100.00;58358.63;4917704;29;1887;-88
2021/07/10 01:35:37;;;;;;;;;;;;;;;-148.22;100.00;58358.63;4928318;28;1231;-88
2021/07/10 01:41:05;;;;;;;;;;;;;;;-148.22;100.00;58358.63;4977144;28;590;-88
2021/07/10 01:43:48;;;;;;;;;;;;;;;-148.22;100.00;58358.63;4976184;28;1452;-87
2021/07/10 01:46:28;;;;;;;;;;;;;;;-148.22;100.00;58358.63;4975860;28;1366;-87
2021/07/10 01:48:56;;;;;;;;;;;;;;;-148.22;100.00;58358.63;4975951;28;1168;-88
2021/07/10 01:51:30;;;;;;;;;;;;;;;-148.22;100.00;58358.63;4975702;28;1898;-88
2021/07/10 01:53:57;;;;;;;;;;;;;;;-148.22;100.00;58358.63;4977827;28;1391;-88
2021/07/10 01:56:56;;;;;;;;;;;;;;;-148.22;100.00;58358.63;4979853;28;1362;-87
2021/07/10 01:59:31;;;;;;;;;;;;;;;-148.22;100.00;58358.63;4959512;29;1289;-88
2021/07/10 02:02:15;;;;;;;;;;;;;;;-148.22;100.00;58358.63;4941639;29;1236;-89
2021/07/10 02:04:44;;;;;;;;;;;;;;;-148.22;100.00;58358.63;4943677;29;1267;-87
2021/07/10 02:07:29;;;;;;;;;;;;;;;-148.22;100.00;58358.63;4943403;29;1316;-88
2021/07/10 02:10:13;;;;;;;;;;;;;;;-148.22;100.00;58358.63;4936659;29;1224;-87
2021/07/10 02:12:39;;;;;;;;;;;;;;;-148.22;100.00;58358.63;4940442;29;1914;-88
2021/07/10 02:18:28;;;;;;;;;;;;;;;-148.22;100.00;58358.63;4951584;29;1216;-88
2021/07/10 02:21:03;;;;;;;;;;;;;;;-148.22;100.00;58358.63;4959181;29;1163;-88
2021/07/10 02:23:28;;;;;;;;;;;;;;;-148.22;100.00;58358.63;4959309;29;780;-88
2021/07/10 02:25:54;;;;;;;;;;;;;;;-148.22;100.00;58358.63;4959350;29;1323;-88
2021/07/10 02:31:38;;;;;;;;;;;;;;;-148.22;100.00;58358.63;4959282;29;1890;-88
2021/07/10 02:34:23;;;;;;;;;;;;;;;-148.22;100.00;58358.63;4961659;28;1334;-88
2021/07/10 02:36:50;;;;;;;;;;;;;;;-148.22;100.00;58358.63;4995321;28;1289;-88
2021/07/10 02:42:18;;;;;;;;;;;;;;;-148.22;100.00;58358.63;4980258;28;669;-88
2021/07/10 02:44:43;;;;;;;;;;;;;;;-148.22;100.00;58358.63;4980124;28;887;-88
2021/07/10 02:47:30;;;;;;;;;;;;;;;-148.22;100.00;58358.63;4978951;28;1201;-88
2021/07/10 02:50:05;;;;;;;;;;;;;;;-148.22;100.00;58358.63;4978850;28;1333;-88
2021/07/10 02:52:33;;;;;;;;;;;;;;;-148.22;100.00;58358.63;4978915;28;1887;-89
2021/07/10 02:55:31;;;;;;;;;;;;;;;-148.22;100.00;58358.63;4978915;28;1285;-87
2021/07/10 03:00:59;;;;;;;;;;;;;;;-148.22;100.00;58358.63;4979923;28;654;-88
2021/07/10 03:06:43;;;;;;;;;;;;;;;-148.22;100.00;58358.63;4979757;28;607;-88
2021/07/10 03:12:08;;;;;;;;;;;;;;;-148.22;100.00;58358.63;4995147;28;1950;-88
2021/07/10 03:14:49;;;;;;;;;;;;;;;-148.22;100.00;58358.63;4981855;28;1328;-89
2021/07/10 03:17:28;;;;;;;;;;;;;;;-148.22;100.00;58358.63;4981556;28;1364;-89
2021/07/10 03:20:03;;;;;;;;;;;;;;;-148.22;100.00;58358.63;4981534;28;1285;-88
2021/07/10 03:25:32;;;;;;;;;;;;;;;-148.22;100.00;58358.63;4998870;28;634;-88
2021/07/10 03:28:00;;;;;;;;;;;;;;;-148.22;100.00;58358.63;4981476;28;1425;-89
2021/07/10 03:30:36;;;;;;;;;;;;;;;-148.22;100.00;58358.63;4981606;28;1280;-89
2021/07/10 03:36:05;;;;;;;;;;;;;;;-148.22;100.00;58358.63;4998768;28;658;-88
2021/07/10 03:38:47;;;;;;;;;;;;;;;-148.22;100.00;58358.63;4981583;28;1330;-88
2021/07/10 03:41:17;;;;;;;;;;;;;;;-148.22;100.00;58358.63;4981304;28;1361;-89
2021/07/10 03:44:15;;;;;;;;;;;;;;;-148.22;100.00;58358.63;4998752;28;843;-88
2021/07/10 03:56:38;;;;;;;;;;;;;;;-148.22;100.00;58358.63;4927607;29;954;-89
2021/07/10 03:59:39;;;;;;;;;;;;;;;-148.22;100.00;58358.63;4919169;29;1157;-88
2021/07/10 04:02:44;;;;;;;;;;;;;;;-148.22;100.00;58358.63;4919437;29;1328;-88
2021/07/10 04:05:25;;;;;;;;;;;;;;;-148.22;100.00;58358.63;4919305;29;1187;-88
2021/07/10 04:08:09;;;;;;;;;;;;;;;-148.22;100.00;58358.63;4918902;29;1263;-88
2021/07/10 04:10:35;;;;;;;;;;;;;;;-148.22;100.00;58358.63;4918922;29;1196;-88
2021/07/10 04:13:00;;;;;;;;;;;;;;;-148.22;100.00;58358.63;4918966;29;1918;-88
2021/07/10 04:15:37;;;;;;;;;;;;;;;-148.22;100.00;58358.63;4918766;29;1276;-89
2021/07/10 04:18:45;;;;;;;;;;;;;;;-148.22;100.00;58358.63;4918949;29;1176;-88
2021/07/10 04:21:11;;;;;;;;;;;;;;;-148.22;100.00;58358.63;4936446;29;1176;-88
2021/07/10 04:23:36;;;;;;;;;;;;;;;-148.22;100.00;58358.63;4936077;29;867;-88
2021/07/10 04:26:30;;;;;;;;;;;;;;;-148.22;100.00;58358.63;4959677;28;1194;-88
2021/07/10 04:28:56;;;;;;;;;;;;;;;-148.22;100.00;58358.63;4966349;28;1277;-89
2021/07/10 04:34:24;;;;;;;;;;;;;;;-148.22;100.00;58358.63;4990107;28;886;-88
2021/07/10 04:37:09;;;;;;;;;;;;;;;-148.22;100.00;58358.63;4980206;28;1294;-88
2021/07/10 04:39:42;;;;;;;;;;;;;;;-148.22;100.00;58358.63;4980123;28;1347;-88
2021/07/10 04:42:21;;;;;;;;;;;;;;;-148.22;100.00;58358.63;4980060;28;1254;-88
2021/07/10 04:45:21;;;;;;;;;;;;;;;-148.22;100.00;58358.63;4980067;28;1220;-89
2021/07/10 04:47:47;;;;;;;;;;;;;;;-148.22;100.00;58358.63;4918461;29;1272;-88
2021/07/10 04:50:25;;;;;;;;;;;;;;;-148.22;100.00;58358.63;4902665;29;1194;-88
2021/07/10 04:55:53;;;;;;;;;;;;;;;-148.22;100.00;58358.63;4918444;29;1076;-88
2021/07/10 04:58:20;;;;;;;;;;;;;;;-148.22;100.00;58358.63;4897726;29;1352;-89
2021/07/10 05:00:55;;;;;;;;;;;;;;;-148.22;100.00;58358.63;4902465;29;1286;-89
2021/07/10 05:03:21;;;;;;;;;;;;;;;-148.22;100.00;58358.63;4902414;29;1179;-89
2021/07/10 05:05:56;;;;;;;;;;;;;;;-148.22;100.00;58358.63;4902313;29;1229;-89
2021/07/10 05:08:41;;;;;;;;;;;;;;;-148.22;100.00;58358.63;4884055;29;1288;-89
2021/07/10 05:11:06;;;;;;;;;;;;;;;-148.22;100.00;58358.63;4883633;29;1974;-89
2021/07/10 05:13:42;;;;;;;;;;;;;;;-148.22;100.00;58358.63;4883786;29;1184;-89
2021/07/10 05:16:43;;;;;;;;;;;;;;;-148.22;100.00;58358.63;4883558;29;1254;-88
2021/07/10 05:19:09;;;;;;;;;;;;;;;-148.22;100.00;58358.63;4883481;29;1240;-88
2021/07/10 05:21:42;;;;;;;;;;;;;;;-148.22;100.00;58358.63;4915814;28;1210;-89
2021/07/10 05:24:21;;;;;;;;;;;;;;;-148.22;100.00;58358.63;4960016;28;1209;-89
2021/07/10 05:29:48;;;;;;;;;;;;;;;-148.22;100.00;58358.63;4977438;28;657;-89
2021/07/10 05:32:17;;;;;;;;;;;;;;;-148.22;100.00;58358.63;4959734;28;1957;-89
2021/07/10 05:34:44;;;;;;;;;;;;;;;-148.22;100.00;58358.63;4960196;28;1397;-89
2021/07/10 05:37:20;;;;;;;;;;;;;;;-148.22;100.00;58358.63;4959932;28;1346;-90
2021/07/10 05:39:52;;;;;;;;;;;;;;;-148.22;100.00;58358.63;4960190;28;1313;-89
2021/07/10 05:42:48;;;;;;;;;;;;;;;-148.22;100.00;58358.63;4959702;28;1222;-89
2021/07/10 05:45:44;;;;;;;;;;;;;;;-148.22;100.00;58358.63;4959846;28;1282;-89
2021/07/10 05:48:09;;;;;;;;;;;;;;;-148.22;100.00;58358.63;4959762;28;1256;-88
2021/07/10 05:50:49;;;;;;;;;;;;;;;-148.22;100.00;58358.63;4959890;28;1345;-89
2021/07/10 05:53:20;;;;;;;;;;;;;;;-148.22;100.00;58358.63;4959614;28;1965;-88
2021/07/10 05:59:25;;;;;;;;;;;;;;;-148.22;100.00;58358.63;4898762;29;962;-88
2021/07/10 06:02:06;;;;;;;;;;;;;;;-148.22;100.00;58358.63;4882957;29;1328;-89
2021/07/10 06:04:34;;;;;;;;;;;;;;;-148.22;100.00;58358.63;4898843;29;1274;-88
2021/07/10 06:07:02;;;;;;;;;;;;;;;-148.22;100.00;58358.63;4898714;29;1182;-88
2021/07/10 06:09:27;;;;;;;;;;;;;;;-148.22;100.00;58358.63;4898580;29;1413;-88
2021/07/10 06:11:53;;;;;;;;;;;;;;;-148.22;100.00;58358.63;4898347;29;1902;-88
2021/07/10 06:17:40;;;;;;;;;;;;;;;-148.22;100.00;58358.63;4898594;29;926;-89
2021/07/10 06:20:09;;;;;;;;;;;;;;;-148.22;100.00;58358.63;4898427;29;1306;-88
2021/07/10 06:25:38;;;;;;;;;;;;;;;-148.22;100.00;58358.63;4898570;29;599;-88
2021/07/10 06:28:35;;;;;;;;;;;;;;;-148.22;100.00;58358.63;4898296;29;1325;-87
2021/07/10 06:37:51;;;;;;;;;;;;;;;-148.22;100.00;58358.63;4936256;29;1076;-86
2021/07/10 06:43:18;;;;;;;;;;;;;;;-148.22;100.00;58358.63;4939975;28;1172;-86
2021/07/10 06:45:44;;;;;;;;;;;;;;;-148.22;100.00;58358.63;4939647;29;1285;-86
2021/07/10 06:48:21;;;;;;;;;;;;;;;-148.22;100.00;58358.63;4939580;29;1229;-85
2021/07/10 06:51:12;;;;;;;;;;;;;;;-148.22;100.00;58358.63;4939669;29;1233;-86
2021/07/10 06:57:05;;;;;;;;;;;;;;;-148.22;100.00;58358.63;4939628;29;941;-86
2021/07/10 07:00:06;;;;;;;;;;;;;;;-148.22;100.00;58358.63;4923624;29;1198;-86
2021/07/10 07:05:49;;;;;;;;;;;;;;;-148.22;100.00;58358.63;4939590;29;670;-88
2021/07/10 07:08:25;;;;;;;;;;;;;;;-148.22;100.00;58358.63;4939401;29;1166;-88
2021/07/10 07:10:50;;;;;;;;;;;;;;;-148.22;100.00;58358.63;4974691;28;1059;-88
2021/07/10 07:13:16;;;;;;;;;;;;;;;-148.22;100.00;58358.63;4962480;28;1895;-87
2021/07/10 07:15:53;;;;;;;;;;;;;;;-148.22;100.00;58358.63;4962440;28;1176;-88
2021/07/10 07:18:31;;;;;;;;;;;;;;;-148.22;100.00;58358.63;4962289;28;1324;-88
2021/07/10 07:23:59;;;;;;;;;;;;;;;-148.22;100.00;58358.63;4979461;28;583;-87
2021/07/10 07:26:36;;;;;;;;;;;;;;;-148.22;100.00;58358.63;4962220;28;1196;-88
2021/07/10 07:29:20;;;;;;;;;;;;;;;-148.22;100.00;58358.63;4962181;28;1417;-88
2021/07/10 07:31:59;;;;;;;;;;;;;;;-148.22;100.00;58358.63;4961949;28;1894;-88
2021/07/10 07:34:49;;;;;;;;;;;;;;;-148.22;100.00;58358.63;4979421;28;938;-87
2021/07/10 07:37:46;;;;;;;;;;;;;;;-148.22;100.00;58358.63;4961885;28;1332;-87
2021/07/10 07:40:48;;;;;;;;;;;;;;;-148.22;100.00;58358.63;4979034;28;887;-88
2021/07/10 07:43:47;;;;;;;;;;;;;;;-148.22;100.00;58358.63;4978980;28;946;-88
2021/07/10 07:46:13;;;;;;;;;;;;;;;-148.22;100.00;58358.63;4919832;29;1076;-88
2021/07/10 07:48:55;;;;;;;;;;;;;;;-148.22;100.00;58358.63;4903940;29;1241;-87
2021/07/10 07:51:30;;;;;;;;;;;;;;;-148.22;100.00;58358.63;4918431;29;1886;-87
2021/07/10 07:54:30;;;;;;;;;;;;;;;-148.22;100.00;58358.63;4903991;29;1228;-87
2021/07/10 07:57:24;;;;;;;;;;;;;;;-148.22;100.00;58358.63;4924659;29;1191;-88
2021/07/10 08:00:02;;;;;;;;;;;;;;;-148.22;100.00;58358.63;4932476;29;1238;-87
2021/07/10 08:04:55;;;;;;;;;;;;;;;-148.22;100.00;58358.63;4996000;28;1327;-84
2021/07/10 08:07:21;;;;;;;;;;;;;;;-148.22;100.00;58358.63;4980692;28;1421;-84
2021/07/10 08:09:56;;;;;;;;;;;;;;;-148.22;100.00;58358.63;4980605;28;1357;-84
2021/07/10 08:12:22;;;;;;;;;;;;;;;-148.22;100.00;58358.63;4997919;28;1981;-85
2021/07/10 08:14:47;;;;;;;;;;;;;;;-148.22;100.00;58358.63;4980378;28;1201;-85
2021/07/10 08:17:14;;;;;;;;;;;;;;;-148.22;100.00;58358.63;4980603;28;1232;-85
2021/07/10 08:19:42;;;;;;;;;;;;;;;-148.22;100.00;58358.63;4979706;28;1438;-84
2021/07/10 08:22:22;;;;;;;;;;;;;;;-148.22;100.00;58358.63;4997975;28;808;-84
2021/07/10 08:24:47;;;;;;;;;;;;;;;-148.22;100.00;58358.63;4980377;28;1191;-84
2021/07/10 08:27:26;;;;;;;;;;;;;;;-148.22;100.00;58358.63;4992737;28;1290;-84
2021/07/10 08:29:52;;;;;;;;;;;;;;;-148.22;100.00;58358.63;4961116;28;1311;-84
2021/07/10 08:32:31;;;;;;;;;;;;;;;-148.22;100.00;58358.63;4960926;28;1964;-84
2021/07/10 08:35:00;;;;;;;;;;;;;;;-148.22;100.00;58358.63;4960925;28;1290;-84
2021/07/10 08:37:25;;;;;;;;;;;;;;;-148.22;100.00;58358.63;4978193;28;998;-85
2021/07/10 08:40:07;;;;;;;;;;;;;;;-148.22;100.00;58358.63;4960842;28;1281;-84
2021/07/10 08:42:33;;;;;;;;;;;;;;;-148.22;100.00;58358.63;4960596;28;1187;-85
2021/07/10 08:45:12;;;;;;;;;;;;;;;-148.22;100.00;58358.63;4960856;28;1326;-85
2021/07/10 08:47:43;;;;;;;;;;;;;;;-148.22;100.00;58358.63;4960720;28;1237;-83
2021/07/10 08:50:13;;;;;;;;;;;;;;;-148.22;100.00;58358.63;4960631;28;1221;-85
2021/07/10 08:52:38;;;;;;;;;;;;;;;-148.22;100.00;58358.63;4960359;28;1894;-84
2021/07/10 08:55:04;;;;;;;;;;;;;;;-148.22;100.00;58358.63;4960631;28;1257;-84
2021/07/10 08:57:31;;;;;;;;;;;;;;;-148.22;100.00;58358.63;4974444;28;1332;-84
2021/07/10 09:00:26;;;;;;;;;;;;;;;-148.22;100.00;58358.63;4969679;28;1309;-84
2021/07/10 09:02:56;;;;;;;;;;;;;;;-148.22;100.00;58358.63;4958685;28;1503;-84
2021/07/10 09:05:22;;;;;;;;;;;;;;;-148.22;100.00;58358.63;4959888;28;1383;-84
2021/07/10 09:08:13;;;;;;;;;;;;;;;-148.22;100.00;58358.63;4959619;28;1317;-85
2021/07/10 09:11:09;;;;;;;;;;;;;;;-148.22;100.00;58358.63;4959413;28;1223;-84
2021/07/10 09:13:37;;;;;;;;;;;;;;;-148.22;100.00;58358.63;4936902;29;1175;-83
2021/07/10 09:16:06;;;;;;;;;;;;;;;-148.22;100.00;58358.63;4936895;29;1158;-85
2021/07/10 09:18:59;;;;;;;;;;;;;;;-148.22;100.00;58358.63;4936906;29;933;-84
2021/07/10 09:21:42;;;;;;;;;;;;;;;-148.22;100.00;58358.63;4899006;29;1087;-84
2021/07/10 09:24:48;;;;;;;;;;;;;;;-148.22;100.00;58358.63;4898965;29;1206;-85
2021/07/10 09:27:14;;;;;;;;;;;;;;;-148.22;100.00;58358.63;4843142;29;1224;-84
2021/07/10 09:29:43;;;;;;;;;;;;;;;-148.22;100.00;58358.63;4828062;29;1186;-83
2021/07/10 09:32:19;;;;;;;;;;;;;;;-148.22;100.00;58358.63;4827940;29;1951;-84
2021/07/10 09:34:54;;;;;;;;;;;;;;;-148.22;100.00;58358.63;4843160;29;1206;-85
2021/07/10 09:37:25;;;;;;;;;;;;;;;-148.22;100.00;58358.63;4828043;29;1291;-85
2021/07/10 09:39:54;;;;;;;;;;;;;;;-148.22;100.00;58358.63;4829840;29;1058;-84
2021/07/10 09:42:23;;;;;;;;;;;;;;;-148.22;100.00;58358.63;4825032;29;1141;-83
2021/07/10 09:44:51;;;;;;;;;;;;;;;-148.22;100.00;58358.63;4809688;29;1172;-83
2021/07/10 09:47:45;;;;;;;;;;;;;;;-148.22;100.00;58358.63;4809670;29;1331;-85
2021/07/10 09:50:17;;;;;;;;;;;;;;;-148.22;100.00;58358.63;4857103;29;1161;-85
2021/07/10 09:52:43;;;;;;;;;;;;;;;-148.22;100.00;58358.63;4863708;29;1900;-84
2021/07/10 09:55:12;;;;;;;;;;;;;;;-148.22;100.00;58358.63;4864615;29;1277;-84
2021/07/10 09:57:39;;;;;;;;;;;;;;;-148.22;100.00;58358.63;4890909;29;1164;-84
2021/07/10 10:00:25;;;;;;;;;;;;;;;-148.22;100.00;58358.63;4956668;28;1346;-84
2021/07/10 10:02:53;;;;;;;;;;;;;;;-148.22;100.00;58358.63;4975785;28;1200;-84
2021/07/10 10:05:20;;;;;;;;;;;;;;;-148.22;100.00;58358.63;4975623;28;1342;-84
2021/07/10 10:07:50;;;;;;;;;;;;;;;-148.22;100.00;58358.63;4975414;28;1291;-84
2021/07/10 10:10:35;;;;;;;;;;;;;;;-148.22;100.00;58358.63;4975477;28;1340;-84
2021/07/10 10:13:09;;;;;;;;;;;;;;;-148.22;100.00;58358.63;4975457;28;1910;-84
2021/07/10 10:15:43;;;;;;;;;;;;;;;-148.22;100.00;58358.63;4978691;28;1274;-83
2021/07/10 10:18:24;;;;;;;;;;;;;;;-148.22;100.00;58358.63;4980747;28;842;-83
2021/07/10 10:21:06;;;;;;;;;;;;;;;-148.22;100.00;58358.63;4979428;28;1243;-83
2021/07/10 10:23:34;;;;;;;;;;;;;;;-148.22;100.00;58358.63;4979372;28;1368;-83
2021/07/10 10:26:00;;;;;;;;;;;;;;;-148.22;100.00;58358.63;4980520;28;1156;-84
2021/07/10 10:28:27;;;;;;;;;;;;;;;-148.22;100.00;58358.63;4980520;28;986;-84
2021/07/10 10:30:55;;;;;;;;;;;;;;;-148.22;100.00;58358.63;4989227;28;1193;-84
2021/07/10 10:33:30;;;;;;;;;;;;;;;-148.22;100.00;58358.63;4996817;28;1894;-83
2021/07/10 10:36:24;;;;;;;;;;;;;;;-148.22;100.00;58358.63;4998624;28;1188;-84
2021/07/10 10:38:52;;;;;;;;;;;;;;;-148.22;100.00;58358.63;5000972;28;1153;-86
2021/07/10 10:41:18;;;;;;;;;;;;;;;-148.22;100.00;58358.63;5017387;28;1049;-84
2021/07/10 10:43:48;;;;;;;;;;;;;;;-148.22;100.00;58358.63;5017252;28;1380;-83
2021/07/10 10:46:19;;;;;;;;;;;;;;;-148.22;100.00;58358.63;5000865;28;1331;-83
2021/07/10 10:48:45;;;;;;;;;;;;;;;-148.22;100.00;58358.63;4981409;28;1404;-83
2021/07/10 10:51:30;;;;;;;;;;;;;;;-148.22;100.00;58358.63;4981305;28;1259;-84
2021/07/10 10:54:14;;;;;;;;;;;;;;;-148.22;100.00;58358.63;4983214;28;1206;-84
2021/07/10 10:56:49;;;;;;;;;;;;;;;-148.22;100.00;58358.63;4999939;28;1186;-84
2021/07/10 10:59:33;;;;;;;;;;;;;;;-148.22;100.00;58358.63;5000634;28;1173;-84
2021/07/10 11:02:00;;;;;;;;;;;;;;;-148.22;100.00;58358.63;5008912;28;1173;-83
2021/07/10 11:04:43;;;;;;;;;;;;;;;-148.22;100.00;58358.63;4980888;28;1359;-84
2021/07/10 11:07:47;;;;;;;;;;;;;;;-148.22;100.00;58358.63;4980989;28;1177;-84
2021/07/10 11:10:24;;;;;;;;;;;;;;;-148.22;100.00;58358.63;4939353;29;1018;-84
2021/07/10 11:13:01;;;;;;;;;;;;;;;-148.22;100.00;58358.63;4941273;28;2000;-83
2021/07/10 11:15:27;;;;;;;;;;;;;;;-148.22;100.00;58358.63;4942440;29;1177;-84
2021/07/10 11:17:59;;;;;;;;;;;;;;;-148.22;100.00;58358.63;4942235;29;1365;-85
2021/07/10 11:20:50;;;;;;;;;;;;;;;-148.22;100.00;58358.63;4942151;29;1256;-85
2021/07/10 11:23:26;;;;;;;;;;;;;;;-148.22;100.00;58358.63;4942111;29;1377;-85
2021/07/10 11:25:55;;;;;;;;;;;;;;;-148.22;100.00;58358.63;4941526;28;906;-84
2021/07/10 11:28:41;;;;;;;;;;;;;;;-148.22;100.00;58358.63;4943818;29;1238;-84
2021/07/10 11:31:08;;;;;;;;;;;;;;;-148.22;100.00;58358.63;4958064;28;1169;-84
2021/07/10 11:33:53;;;;;;;;;;;;;;;-148.22;100.00;58358.63;4932632;29;1894;-85
2021/07/10 11:36:40;;;;;;;;;;;;;;;-148.22;100.00;58358.63;4945379;28;934;-84
2021/07/10 11:39:32;;;;;;;;;;;;;;;-148.22;100.00;58358.63;4941885;29;1326;-85
2021/07/10 11:42:19;;;;;;;;;;;;;;;-148.22;100.00;58358.63;4953812;29;1237;-84
2021/07/10 11:45:24;;;;;;;;;;;;;;;-148.22;100.00;58358.63;4940551;29;1229;-85
2021/07/10 11:48:10;;;;;;;;;;;;;;;-148.22;100.00;58358.63;4885155;29;1413;-85
2021/07/10 11:50:42;;;;;;;;;;;;;;;-148.22;100.00;58358.63;4844023;29;1307;-84
2021/07/10 11:53:13;;;;;;;;;;;;;;;-148.22;100.00;58358.63;4843812;29;1891;-84
2021/07/10 11:56:09;;;;;;;;;;;;;;;-148.22;100.00;58358.63;4844980;29;986;-84
2021/07/10 11:58:43;;;;;;;;;;;;;;;-148.22;100.00;58358.63;4826414;29;1180;-85
2021/07/10 12:01:23;;;;;;;;;;;;;;;-148.22;100.00;58358.63;4826624;29;1227;-85
2021/07/10 12:03:48;;;;;;;;;;;;;;;-148.22;100.00;58358.63;4819470;29;1247;-84
2021/07/10 12:06:19;;;;;;;;;;;;;;;-148.22;100.00;58358.63;4793112;29;1251;-84
2021/07/10 12:08:57;;;;;;;;;;;;;;;-148.22;100.00;58358.63;4808233;29;1312;-85
2021/07/10 12:11:59;;;;;;;;;;;;;;;-148.22;100.00;58358.63;4808159;29;1911;-84
2021/07/10 12:14:25;;;;;;;;;;;;;;;-148.22;100.00;58358.63;4775321;30;1215;-85
2021/07/10 12:17:01;;;;;;;;;;;;;;;-148.22;100.00;58358.63;4775273;30;1342;-85
2021/07/10 12:19:27;;;;;;;;;;;;;;;-148.22;100.00;58358.63;4828112;29;1163;-85
2021/07/10 12:22:11;;;;;;;;;;;;;;;-148.22;100.00;58358.63;4862659;29;1236;-86
2021/07/10 12:24:48;;;;;;;;;;;;;;;-148.22;100.00;58358.63;4862915;29;1340;-84
2021/07/10 12:27:17;;;;;;;;;;;;;;;-148.22;100.00;58358.63;4871405;29;1158;-85
2021/07/10 12:30:00;;;;;;;;;;;;;;;-148.22;100.00;58358.63;4899832;29;1197;-84
2021/07/10 12:32:26;;;;;;;;;;;;;;;-148.22;100.00;58358.63;4899829;29;1895;-84
2021/07/10 12:34:53;;;;;;;;;;;;;;;-148.22;100.00;58358.63;4908628;29;1379;-85
2021/07/10 12:37:29;;;;;;;;;;;;;;;-148.22;100.00;58358.63;4902432;29;1171;-84
2021/07/10 12:40:09;;;;;;;;;;;;;;;-148.22;100.00;58358.63;4903047;29;1171;-85
2021/07/10 12:42:36;;;;;;;;;;;;;;;-148.22;100.00;58358.63;4902699;29;1330;-84
2021/07/10 12:45:01;;;;;;;;;;;;;;;-148.22;100.00;58358.63;4918625;29;994;-85
2021/07/10 12:47:32;;;;;;;;;;;;;;;-148.22;100.00;58358.63;4909629;28;1273;-84
2021/07/10 12:50:05;;;;;;;;;;;;;;;-148.22;100.00;58358.63;4976805;28;1266;-85
2021/07/10 12:53:11;;;;;;;;;;;;;;;-148.22;100.00;58358.63;4976660;28;1956;-85
2021/07/10 12:55:48;;;;;;;;;;;;;;;-148.22;100.00;58358.63;4975748;28;1330;-84
2021/07/10 12:58:16;;;;;;;;;;;;;;;-148.22;100.00;58358.63;4975883;28;950;-84
2021/07/10 13:01:10;;;;;;;;;;;;;;;-148.22;100.00;58358.63;4959601;28;1360;-84
2021/07/10 13:03:37;;;;;;;;;;;;;;;-148.22;100.00;58358.63;4917444;29;1203;-84
2021/07/10 13:06:02;;;;;;;;;;;;;;;-148.22;100.00;58358.63;4917880;29;1339;-84
2021/07/10 13:08:29;;;;;;;;;;;;;;;-148.22;100.00;58358.63;4918178;29;1194;-83
2021/07/10 13:11:32;;;;;;;;;;;;;;;-148.22;100.00;58358.63;4918156;29;1322;-84
2021/07/10 13:13:58;;;;;;;;;;;;;;;-148.22;100.00;58358.63;4918463;29;1094;-85
2021/07/10 13:16:30;;;;;;;;;;;;;;;-148.22;100.00;58358.63;4918254;29;1323;-85
2021/07/10 13:18:57;;;;;;;;;;;;;;;-148.22;100.00;58358.63;4918066;29;1247;-86
2021/07/10 13:21:36;;;;;;;;;;;;;;;-148.22;100.00;58358.63;4917951;29;1269;-84
2021/07/10 13:24:29;;;;;;;;;;;;;;;-148.22;100.00;58358.63;4917913;29;1297;-85
2021/07/10 13:27:04;;;;;;;;;;;;;;;-148.22;100.00;58358.63;4917921;29;1191;-86
2021/07/10 13:29:30;;;;;;;;;;;;;;;-148.22;100.00;58358.63;4927364;29;1253;-86
2021/07/10 13:32:07;;;;;;;;;;;;;;;-148.22;100.00;58358.63;4936901;29;1954;-86
2021/07/10 13:34:36;;;;;;;;;;;;;;;-148.22;100.00;58358.63;4937144;29;1111;-85
2021/07/10 13:37:04;;;;;;;;;;;;;;;-148.22;100.00;58358.63;4936773;29;1284;-84
2021/07/10 13:39:40;;;;;;;;;;;;;;;-148.22;100.00;58358.63;4951115;28;1238;-85
2021/07/10 13:42:09;;;;;;;;;;;;;;;-148.22;100.00;58358.63;4975974;28;1297;-85
2021/07/10 13:44:47;;;;;;;;;;;;;;;-148.22;100.00;58358.63;4975835;28;1308;-85
2021/07/10 13:47:27;;;;;;;;;;;;;;;-148.22;100.00;58358.63;4976030;28;1184;-85
2021/07/10 13:50:06;;;;;;;;;;;;;;;-148.22;100.00;58358.63;4982934;28;850;-83
2021/07/10 13:52:42;;;;;;;;;;;;;;;-148.22;100.00;58358.63;5010865;28;1894;-83
2021/07/10 13:55:22;;;;;;;;;;;;;;;-148.22;100.00;58358.63;5010281;28;1322;-83
2021/07/10 13:57:50;;;;;;;;;;;;;;;-148.22;100.00;58358.63;4995188;28;1160;-85
2021/07/10 14:00:41;;;;;;;;;;;;;;;-148.22;100.00;58358.63;4995066;28;1299;-84
2021/07/10 14:03:06;;;;;;;;;;;;;;;-148.22;100.00;58358.63;4975640;28;1418;-82
2021/07/10 14:05:38;;;;;;;;;;;;;;;-148.22;100.00;58358.63;4990886;28;1278;-84
2021/07/10 14:08:06;;;;;;;;;;;;;;;-148.22;100.00;58358.63;4958654;28;1376;-83
2021/07/10 14:10:33;;;;;;;;;;;;;;;-148.22;100.00;58358.63;4958783;28;1254;-84
2021/07/10 14:13:01;;;;;;;;;;;;;;;-148.22;100.00;58358.63;4958617;28;1907;-84
2021/07/10 14:15:27;;;;;;;;;;;;;;;-148.22;100.00;58358.63;4958564;28;1139;-83
2021/07/10 14:18:02;;;;;;;;;;;;;;;-148.22;100.00;58358.63;4958779;28;1400;-84
2021/07/10 14:20:38;;;;;;;;;;;;;;;-148.22;100.00;58358.63;4958686;28;1216;-84
2021/07/10 14:23:04;;;;;;;;;;;;;;;-148.22;100.00;58358.63;4958602;28;1243;-85
2021/07/10 14:25:31;;;;;;;;;;;;;;;-148.22;100.00;58358.63;4977271;28;1257;-83
2021/07/10 14:28:16;;;;;;;;;;;;;;;-148.22;100.00;58358.63;4977793;28;1299;-83
2021/07/10 14:30:42;;;;;;;;;;;;;;;-148.22;100.00;58358.63;4994012;28;874;-83
2021/07/10 14:33:39;;;;;;;;;;;;;;;-148.22;100.00;58358.63;4993984;28;1888;-84
2021/07/10 14:36:21;;;;;;;;;;;;;;;-148.22;100.00;58358.63;4955271;29;1310;-85
2021/07/10 14:38:57;;;;;;;;;;;;;;;-148.22;100.00;58358.63;4939242;29;1179;-84
2021/07/10 14:41:23;;;;;;;;;;;;;;;-148.22;100.00;58358.63;4974441;28;1174;-83
2021/07/10 14:43:50;;;;;;;;;;;;;;;-148.22;100.00;58358.63;4958386;28;1177;-83
2021/07/10 14:46:25;;;;;;;;;;;;;;;-148.22;100.00;58358.63;4958259;28;1214;-84
2021/07/10 14:48:53;;;;;;;;;;;;;;;-148.22;100.00;58358.63;4958415;28;1295;-84
2021/07/10 14:51:18;;;;;;;;;;;;;;;-148.22;100.00;58358.63;4974340;28;1323;-84
2021/07/10 14:53:43;;;;;;;;;;;;;;;-148.22;100.00;58358.63;4958202;28;1981;-83
2021/07/10 14:56:09;;;;;;;;;;;;;;;-148.22;100.00;58358.63;4958199;28;1198;-83